Time;durP1;ratioP1;P1;durP2;ratioP2;P2;SDS_P1;SDS_P2;PMS_P1;PMS_P2;Temp;Humidity;BMP_temperature;BMP_pressure;BME280_temperature;BME280_humidity;BME280_pressure;Samples;Min_cycle;Max_cycle;Signal;HPM_P1;HPM_P2
2023/09/17 00:01:03;;;;;;;9.93;8.90;;;16.20;99.90;;;;;;6213450;23;20166;-88
2023/09/17 00:03:32;;;;;;;10.80;9.60;;;16.20;99.90;;;;;;6212384;23;20198;-87
2023/09/17 00:05:59;;;;;;;9.23;8.32;;;16.30;99.90;;;;;;6188218;23;20221;-87
2023/09/17 00:08:26;;;;;;;8.82;7.90;;;16.30;99.90;;;;;;6213031;23;20170;-88
2023/09/17 00:10:53;;;;;;;9.23;7.93;;;16.40;99.90;;;;;;6214970;23;20253;-87
2023/09/17 00:13:20;;;;;;;8.82;7.65;;;16.40;99.90;;;;;;6214413;23;20170;-88
2023/09/17 00:15:47;;;;;;;8.73;7.80;;;16.30;99.90;;;;;;6179841;23;20189;-88
2023/09/17 00:18:15;;;;;;;9.25;8.27;;;16.20;99.90;;;;;;6214977;23;20517;-88
2023/09/17 00:20:43;;;;;;;11.13;7.43;;;16.10;99.90;;;;;;6214503;23;20205;-88
2023/09/17 00:23:10;;;;;;;10.10;7.50;;;16.00;99.90;;;;;;6213780;23;20185;-88
2023/09/17 00:25:40;;;;;;;10.30;7.80;;;16.00;99.90;;;;;;6188483;23;20209;-88
2023/09/17 00:28:07;;;;;;;9.43;6.90;;;16.00;99.90;;;;;;6215038;23;20166;-88
2023/09/17 00:30:34;;;;;;;10.32;7.80;;;16.00;99.90;;;;;;6212951;23;20491;-88
2023/09/17 00:33:02;;;;;;;9.20;8.40;;;15.90;99.90;;;;;;6187048;23;20194;-88
2023/09/17 00:35:29;;;;;;;10.43;7.72;;;15.80;99.90;;;;;;6214222;23;20178;-88
2023/09/17 00:37:57;;;;;;;12.20;7.90;;;15.90;99.90;;;;;;6187793;23;20170;-87
2023/09/17 00:40:29;;;;;;;8.40;7.60;;;16.10;99.90;;;;;;6187182;23;20491;-88
2023/09/17 00:42:56;;;;;;;8.25;7.45;;;16.20;99.90;;;;;;6214195;23;20181;-88
2023/09/17 00:45:23;;;;;;;8.10;7.30;;;16.30;99.90;;;;;;6187777;23;20240;-88
2023/09/17 00:47:50;;;;;;;7.63;6.93;;;16.20;99.90;;;;;;6186816;23;20177;-88
2023/09/17 00:50:17;;;;;;;8.05;7.05;;;16.10;99.90;;;;;;6188446;23;20180;-88
2023/09/17 00:52:45;;;;;;;9.55;7.40;;;16.00;99.90;;;;;;6214309;23;20193;-88
2023/09/17 00:55:13;;;;;;;8.45;7.65;;;15.80;99.90;;;;;;6187785;23;20239;-87
2023/09/17 00:57:41;;;;;;;8.38;7.10;;;15.80;99.90;;;;;;6214150;23;20170;-88
2023/09/17 01:00:09;;;;;;;8.35;6.97;;;15.70;99.90;;;;;;6213990;23;20174;-88
2023/09/17 01:02:37;;;;;;;8.15;7.35;;;15.90;99.90;;;;;;6214049;23;20193;-88
2023/09/17 01:05:06;;;;;;;16.65;12.52;;;16.00;99.90;;;;;;6213840;23;20272;-88
2023/09/17 01:07:34;;;;;;;13.23;9.82;;;16.10;99.90;;;;;;6212881;23;20177;-87
2023/09/17 01:10:01;;;;;;;15.45;12.68;;;16.10;99.90;;;;;;6186355;23;20244;-88
2023/09/17 01:12:30;;;;;;;10.02;7.93;;;16.00;99.90;;;;;;6212887;23;20201;-88
2023/09/17 01:14:57;;;;;;;10.60;9.57;;;15.90;99.90;;;;;;6213138;23;20188;-88
2023/09/17 01:17:27;;;;;;;12.52;11.13;;;15.80;99.90;;;;;;6186637;23;20700;-88
2023/09/17 01:19:54;;;;;;;19.52;17.42;;;15.80;99.90;;;;;;6213012;23;20177;-88
2023/09/17 01:22:28;;;;;;;83.60;74.47;;;15.80;99.90;;;;;;6212763;23;20209;-88
2023/09/17 01:25:05;;;;;;;46.40;41.42;;;15.90;99.90;;;;;;6213751;23;20159;-88
2023/09/17 01:27:35;;;;;;;10.35;9.32;;;16.10;99.90;;;;;;6189272;23;20169;-88
2023/09/17 01:30:04;;;;;;;8.70;7.35;;;16.00;99.90;;;;;;6213353;23;20600;-88
2023/09/17 01:32:31;;;;;;;7.20;6.55;;;16.00;99.90;;;;;;6186843;23;20248;-88
2023/09/17 01:34:58;;;;;;;9.65;8.65;;;15.90;99.90;;;;;;6213479;23;20174;-88
2023/09/17 01:37:30;;;;;;;11.27;10.15;;;15.80;99.90;;;;;;6186606;23;20180;-88
2023/09/17 01:39:59;;;;;;;9.35;7.35;;;15.80;99.90;;;;;;6213525;23;20616;-88
2023/09/17 01:42:27;;;;;;;10.73;9.60;;;15.80;99.90;;;;;;6212987;23;20166;-88
2023/09/17 01:44:58;;;;;;;8.90;7.97;;;15.80;99.90;;;;;;6212088;23;20180;-88
2023/09/17 01:47:26;;;;;;;11.52;7.75;;;15.90;99.90;;;;;;6211833;23;20174;-88
2023/09/17 01:49:55;;;;;;;9.13;8.27;;;15.90;99.90;;;;;;6212462;23;20655;-88
2023/09/17 01:52:25;;;;;;;7.88;7.13;;;15.90;99.90;;;;;;6212565;23;20206;-88
2023/09/17 01:54:51;;;;;;;8.88;8.07;;;15.80;99.90;;;;;;6213420;23;20336;-88
2023/09/17 01:57:18;;;;;;;9.95;7.22;;;15.60;99.90;;;;;;6185855;23;20178;-88
2023/09/17 01:59:45;;;;;;;9.40;8.50;;;15.60;99.90;;;;;;6187396;23;20180;-88
2023/09/17 02:02:14;;;;;;;8.13;7.32;;;15.70;99.90;;;;;;6212772;23;20711;-87
2023/09/17 02:04:41;;;;;;;9.50;7.38;;;15.80;99.90;;;;;;6186858;23;20181;-88
2023/09/17 02:07:09;;;;;;;8.27;7.47;;;15.80;99.90;;;;;;6211724;23;20216;-88
2023/09/17 02:09:36;;;;;;;8.32;6.68;;;15.70;99.90;;;;;;6209035;23;20176;-88
2023/09/17 02:12:03;;;;;;;9.15;7.15;;;15.60;99.90;;;;;;6186435;23;20198;-88
2023/09/17 02:14:29;;;;;;;7.32;6.65;;;15.60;99.90;;;;;;6212595;23;20170;-88
2023/09/17 02:16:56;;;;;;;8.25;7.10;;;15.50;99.90;;;;;;6212689;23;20177;-88
2023/09/17 02:19:25;;;;;;;7.53;6.82;;;15.40;99.90;;;;;;6163814;23;20170;-88
2023/09/17 02:21:52;;;;;;;7.90;6.80;;;15.30;99.90;;;;;;6187180;23;20616;-88
2023/09/17 02:24:19;;;;;;;7.32;6.60;;;15.40;99.90;;;;;;6161581;23;20193;-88
2023/09/17 02:26:46;;;;;;;7.22;6.53;;;15.40;99.90;;;;;;6212796;23;20504;-88
2023/09/17 02:29:13;;;;;;;6.72;6.03;;;15.60;99.90;;;;;;6212933;23;20180;-88
2023/09/17 02:31:40;;;;;;;7.43;6.28;;;15.50;99.90;;;;;;6213682;23;20176;-88
2023/09/17 02:34:07;;;;;;;8.10;5.95;;;15.50;99.90;;;;;;6212074;23;20181;-88
2023/09/17 02:36:36;;;;;;;6.53;5.72;;;15.40;99.90;;;;;;6185429;23;20177;-88
2023/09/17 02:39:04;;;;;;;6.68;5.95;;;15.50;99.90;;;;;;6213920;23;20249;-88
2023/09/17 02:41:30;;;;;;;6.10;5.50;;;15.50;99.90;;;;;;6188178;23;20734;-88
2023/09/17 02:43:59;;;;;;;7.35;5.78;;;15.30;99.90;;;;;;6213063;23;20170;-88
2023/09/17 02:46:26;;;;;;;6.57;5.88;;;15.30;99.90;;;;;;6186257;23;20609;-88
2023/09/17 02:48:54;;;;;;;6.43;5.82;;;15.20;99.90;;;;;;6186820;23;20246;-88
2023/09/17 02:51:21;;;;;;;7.85;6.07;;;15.20;99.90;;;;;;6211147;23;20194;-88
2023/09/17 02:53:49;;;;;;;6.68;5.53;;;15.40;99.90;;;;;;6212382;23;20518;-88
2023/09/17 02:56:16;;;;;;;6.10;5.60;;;15.50;99.90;;;;;;6212202;23;20178;-88
2023/09/17 02:58:44;;;;;;;55.30;49.35;;;15.30;99.90;;;;;;6161507;23;20258;-89
2023/09/17 03:01:18;;;;;;;37.22;31.88;;;15.30;99.90;;;;;;6213097;23;20731;-88
2023/09/17 03:03:45;;;;;;;7.55;5.32;;;15.40;99.90;;;;;;6212624;23;20582;-88
2023/09/17 03:06:12;;;;;;;7.25;5.90;;;15.40;99.90;;;;;;6211955;23;20173;-88
2023/09/17 03:08:41;;;;;;;7.00;6.32;;;15.20;99.90;;;;;;6187004;23;20177;-88
2023/09/17 03:11:13;;;;;;;6.05;5.45;;;15.20;99.90;;;;;;6188343;23;20173;-88
2023/09/17 03:13:42;;;;;;;6.05;5.50;;;15.10;99.90;;;;;;6213317;23;20942;-88
2023/09/17 03:16:12;;;;;;;5.97;5.47;;;15.00;99.90;;;;;;6215183;23;20190;-87
2023/09/17 03:18:39;;;;;;;6.13;5.40;;;15.00;99.90;;;;;;6215202;23;20229;-88
2023/09/17 03:21:06;;;;;;;9.07;5.22;;;14.90;99.90;;;;;;6215201;23;20170;-88
2023/09/17 03:23:34;;;;;;;6.57;5.97;;;14.90;99.90;;;;;;6188350;23;20624;-88
2023/09/17 03:26:01;;;;;;;6.85;6.25;;;15.00;99.90;;;;;;6189266;23;20212;-88
2023/09/17 03:28:30;;;;;;;11.40;9.63;;;15.00;99.90;;;;;;6211402;23;20185;-88
2023/09/17 03:30:57;;;;;;;7.90;7.10;;;15.20;99.90;;;;;;6214823;23;20498;-88
2023/09/17 03:33:24;;;;;;;6.07;5.45;;;15.30;99.90;;;;;;6188294;23;20190;-88
2023/09/17 03:35:51;;;;;;;7.78;5.88;;;15.20;99.90;;;;;;6215640;23;20170;-88
2023/09/17 03:38:18;;;;;;;6.80;6.20;;;15.20;99.90;;;;;;6188909;23;20648;-88
2023/09/17 03:40:45;;;;;;;6.15;5.55;;;15.10;99.90;;;;;;6215219;23;20180;-88
2023/09/17 03:43:12;;;;;;;6.10;5.22;;;15.10;99.90;;;;;;6214340;23;20174;-88
2023/09/17 03:45:41;;;;;;;6.90;6.20;;;15.00;99.90;;;;;;6189181;23;20174;-88
2023/09/17 03:48:08;;;;;;;10.25;9.23;;;14.90;99.90;;;;;;6188127;23;20181;-88
2023/09/17 03:50:38;;;;;;;6.80;6.10;;;15.00;99.90;;;;;;6188381;23;20198;-88
2023/09/17 03:53:06;;;;;;;6.50;5.03;;;15.20;99.90;;;;;;6215426;23;20194;-88
2023/09/17 03:55:34;;;;;;;5.28;4.78;;;15.20;99.90;;;;;;6214893;23;20624;-88
2023/09/17 03:58:03;;;;;;;5.97;5.00;;;15.10;99.90;;;;;;6214361;23;20682;-88
2023/09/17 04:00:30;;;;;;;5.35;4.85;;;15.00;99.90;;;;;;6209989;23;20232;-88
2023/09/17 04:03:00;;;;;;;7.45;5.40;;;15.00;99.90;;;;;;6214564;23;20178;-88
2023/09/17 04:05:28;;;;;;;8.68;7.72;;;15.00;99.90;;;;;;6214537;23;20777;-88
2023/09/17 04:07:55;;;;;;;8.00;5.88;;;15.20;99.90;;;;;;6214153;23;20228;-88
2023/09/17 04:10:22;;;;;;;8.32;5.95;;;15.30;99.90;;;;;;6213980;23;20174;-87
2023/09/17 04:12:49;;;;;;;7.15;5.75;;;15.40;99.90;;;;;;6213875;23;20268;-88
2023/09/17 04:15:18;;;;;;;5.55;5.07;;;15.50;99.90;;;;;;6212934;23;20174;-88
2023/09/17 04:17:46;;;;;;;5.63;4.97;;;15.30;99.90;;;;;;6189181;23;20169;-88
2023/09/17 04:20:17;;;;;;;5.20;4.75;;;15.10;99.90;;;;;;6214289;23;20174;-87
2023/09/17 04:22:44;;;;;;;5.38;4.88;;;15.00;99.90;;;;;;6214168;23;20628;-88
2023/09/17 04:25:11;;;;;;;5.55;4.60;;;14.90;99.90;;;;;;6214593;23;20260;-88
2023/09/17 04:27:41;;;;;;;6.25;5.40;;;14.80;99.90;;;;;;6214121;23;20224;-88
2023/09/17 04:30:08;;;;;;;6.18;5.22;;;14.80;99.90;;;;;;6214343;23;20497;-88
2023/09/17 04:32:37;;;;;;;5.70;5.10;;;14.70;99.90;;;;;;6214951;23;20193;-88
2023/09/17 04:35:05;;;;;;;5.53;5.03;;;14.70;99.90;;;;;;6214052;23;20173;-88
2023/09/17 04:37:34;;;;;;;5.38;4.88;;;14.70;99.90;;;;;;6214577;23;20539;-88
2023/09/17 04:40:01;;;;;;;5.00;4.57;;;14.70;99.90;;;;;;6214605;23;20181;-88
2023/09/17 04:42:28;;;;;;;5.72;4.97;;;14.70;99.90;;;;;;6183335;23;20505;-88
2023/09/17 04:44:55;;;;;;;6.55;5.13;;;14.70;99.90;;;;;;6188034;23;20181;-88
2023/09/17 04:47:22;;;;;;;5.80;5.20;;;14.70;99.90;;;;;;6213854;23;20166;-87
2023/09/17 04:49:48;;;;;;;7.05;5.25;;;14.80;99.90;;;;;;6211848;23;20178;-88
2023/09/17 04:52:18;;;;;;;6.55;5.95;;;14.80;99.90;;;;;;6213868;23;20273;-87
2023/09/17 04:54:47;;;;;;;5.07;4.65;;;14.90;99.90;;;;;;6214692;23;20166;-88
2023/09/17 04:57:14;;;;;;;5.45;4.95;;;14.90;99.90;;;;;;6187271;23;20174;-87
2023/09/17 04:59:41;;;;;;;5.05;4.60;;;14.90;99.90;;;;;;6213965;23;20240;-88
2023/09/17 05:02:08;;;;;;;5.50;5.00;;;14.80;99.90;;;;;;6162899;23;20239;-88
2023/09/17 05:04:35;;;;;;;5.32;4.80;;;14.80;99.90;;;;;;6213396;23;20487;-88
2023/09/17 05:07:03;;;;;;;5.20;4.70;;;14.90;99.90;;;;;;6214346;23;20170;-88
2023/09/17 05:09:30;;;;;;;5.30;4.80;;;14.90;99.90;;;;;;6213317;23;20170;-88
2023/09/17 05:11:59;;;;;;;5.68;5.18;;;14.90;99.90;;;;;;6213494;23;20170;-88
2023/09/17 05:14:26;;;;;;;5.75;5.13;;;14.90;99.90;;;;;;6186198;23;20190;-88
2023/09/17 05:16:53;;;;;;;5.93;5.40;;;15.10;99.90;;;;;;6161810;23;20232;-88
2023/09/17 05:19:19;;;;;;;5.03;4.55;;;15.30;99.90;;;;;;6214110;23;20176;-88
2023/09/17 05:21:46;;;;;;;5.32;4.93;;;15.40;99.90;;;;;;6213219;23;20180;-88
2023/09/17 05:24:13;;;;;;;5.60;4.80;;;15.40;99.90;;;;;;6213154;23;20170;-88
2023/09/17 05:26:40;;;;;;;6.47;5.20;;;15.40;99.90;;;;;;6212668;23;20185;-90
2023/09/17 05:29:11;;;;;;;5.28;4.78;;;15.50;99.90;;;;;;6212951;23;20174;-88
2023/09/17 05:31:38;;;;;;;5.55;4.50;;;15.50;99.90;;;;;;6212008;23;20164;-87
2023/09/17 05:34:05;;;;;;;5.40;4.90;;;15.60;99.90;;;;;;6185278;23;20194;-89
2023/09/17 05:36:32;;;;;;;5.13;4.60;;;15.60;99.90;;;;;;6187422;23;20180;-90
2023/09/17 05:39:00;;;;;;;5.03;4.63;;;15.80;99.90;;;;;;6213766;23;20182;-89
2023/09/17 05:41:27;;;;;;;5.22;4.72;;;15.90;99.90;;;;;;6162340;23;20180;-89
2023/09/17 05:43:53;;;;;;;5.03;4.55;;;16.10;99.90;;;;;;6184019;23;20205;-89
2023/09/17 05:46:22;;;;;;;5.43;4.57;;;16.30;99.90;;;;;;6160146;23;20774;-88
2023/09/17 05:48:51;;;;;;;8.10;4.82;;;16.30;99.90;;;;;;6214229;23;20178;-89
2023/09/17 05:51:18;;;;;;;5.20;4.70;;;16.40;99.90;;;;;;6204835;23;20196;-89
2023/09/17 05:53:45;;;;;;;4.72;4.25;;;16.40;99.90;;;;;;6186941;23;20509;-89
2023/09/17 05:56:12;;;;;;;5.22;4.72;;;16.50;99.90;;;;;;6186693;23;20184;-88
2023/09/17 05:58:39;;;;;;;5.07;4.32;;;16.50;99.90;;;;;;6187492;23;20185;-88
2023/09/17 06:01:06;;;;;;;4.75;4.20;;;16.50;99.90;;;;;;6185508;23;20580;-88
2023/09/17 06:03:34;;;;;;;4.25;3.95;;;16.60;99.90;;;;;;6213391;23;20178;-88
2023/09/17 06:06:02;;;;;;;4.32;3.92;;;16.90;99.90;;;;;;6212716;23;20170;-88
2023/09/17 06:08:29;;;;;;;5.07;4.07;;;17.10;99.90;;;;;;6187590;23;20296;-88
2023/09/17 06:10:56;;;;;;;6.50;4.75;;;17.30;99.90;;;;;;6213599;23;20182;-88
2023/09/17 06:13:23;;;;;;;5.25;4.43;;;17.10;99.90;;;;;;6212760;23;20211;-89
2023/09/17 06:15:50;;;;;;;5.40;4.30;;;17.00;99.90;;;;;;6212991;23;20816;-88
2023/09/17 06:18:18;;;;;;;7.40;4.60;;;16.90;99.90;;;;;;6188216;23;20196;-88
2023/09/17 06:20:47;;;;;;;4.88;4.38;;;16.90;99.90;;;;;;6212964;23;20224;-88
2023/09/17 06:23:14;;;;;;;6.32;4.40;;;16.90;99.90;;;;;;6213948;23;20178;-87
2023/09/17 06:25:41;;;;;;;4.20;3.80;;;16.90;99.90;;;;;;6212526;23;20178;-88
2023/09/17 06:28:08;;;;;;;4.40;4.00;;;17.10;99.90;;;;;;6213484;23;20170;-89
2023/09/17 06:30:37;;;;;;;5.05;4.53;;;17.30;99.90;;;;;;6186527;23;20170;-89
2023/09/17 06:33:05;;;;;;;4.60;4.30;;;17.60;99.90;;;;;;6212832;23;20201;-90
2023/09/17 06:35:31;;;;;;;4.80;4.40;;;17.70;99.90;;;;;;6186919;23;20174;-90
2023/09/17 06:38:00;;;;;;;4.55;4.15;;;17.70;99.90;;;;;;6212481;23;20510;-90
2023/09/17 06:40:26;;;;;;;4.55;4.15;;;18.00;99.90;;;;;;6212683;23;20173;-90
2023/09/17 06:42:53;;;;;;;5.07;3.92;;;18.30;99.90;;;;;;6210858;23;20182;-89
2023/09/17 06:45:20;;;;;;;4.93;4.40;;;18.40;99.90;;;;;;6211077;23;20532;-89
2023/09/17 06:47:47;;;;;;;5.18;4.20;;;18.30;99.90;;;;;;6211625;23;20547;-90
2023/09/17 06:50:15;;;;;;;4.85;4.28;;;18.50;99.90;;;;;;6206894;23;20269;-89
2023/09/17 06:52:44;;;;;;;5.97;4.38;;;18.60;99.90;;;;;;6180261;23;20184;-87
2023/09/17 06:55:12;;;;;;;4.65;4.25;;;18.80;99.60;;;;;;6203853;23;20192;-88
2023/09/17 06:57:39;;;;;;;4.90;4.18;;;18.80;98.90;;;;;;6210781;23;20248;-88
2023/09/17 07:00:09;;;;;;;4.22;3.92;;;18.90;99.10;;;;;;6212991;23;20173;-88
2023/09/17 07:02:36;;;;;;;6.70;3.78;;;19.00;99.10;;;;;;6184984;23;20192;-88
2023/09/17 07:05:03;;;;;;;3.92;3.63;;;19.30;98.60;;;;;;6213230;23;20658;-87
2023/09/17 07:07:30;;;;;;;4.97;3.92;;;19.30;97.90;;;;;;6212347;23;20177;-87
2023/09/17 07:09:57;;;;;;;4.90;3.83;;;19.50;98.00;;;;;;6187104;23;20174;-87
2023/09/17 07:12:25;;;;;;;4.38;3.97;;;19.60;98.00;;;;;;6186245;23;20170;-87
2023/09/17 07:14:52;;;;;;;4.00;3.70;;;19.70;97.50;;;;;;6213637;23;20198;-87
2023/09/17 07:17:19;;;;;;;6.07;3.80;;;19.80;96.90;;;;;;6186151;23;20170;-87
2023/09/17 07:19:46;;;;;;;4.78;3.65;;;19.80;97.40;;;;;;6212966;23;21004;-88
2023/09/17 07:22:14;;;;;;;4.10;3.70;;;19.90;96.80;;;;;;6213043;23;20270;-87
2023/09/17 07:24:41;;;;;;;4.82;3.50;;;19.80;97.40;;;;;;6211325;23;20174;-88
2023/09/17 07:27:08;;;;;;;6.30;3.88;;;20.00;96.90;;;;;;6211889;23;20176;-88
2023/09/17 07:29:37;;;;;;;4.15;3.75;;;20.00;96.50;;;;;;6178455;23;20170;-88
2023/09/17 07:32:05;;;;;;;4.05;3.65;;;20.30;96.10;;;;;;6204355;23;20197;-90
2023/09/17 07:34:31;;;;;;;3.83;3.50;;;20.40;95.50;;;;;;6210540;23;20520;-89
2023/09/17 07:37:01;;;;;;;3.70;3.40;;;20.70;94.30;;;;;;6208622;23;20178;-89
2023/09/17 07:39:28;;;;;;;3.97;3.50;;;20.90;93.00;;;;;;6209522;23;20174;-90
2023/09/17 07:41:54;;;;;;;3.92;3.42;;;21.00;92.90;;;;;;6185750;23;20174;-91
2023/09/17 07:44:21;;;;;;;4.38;3.20;;;21.10;92.90;;;;;;6212359;23;20170;-91
2023/09/17 07:46:50;;;;;;;3.63;3.33;;;21.20;91.40;;;;;;6186481;23;20613;-90
2023/09/17 07:49:17;;;;;;;3.83;2.83;;;21.20;91.20;;;;;;6212044;23;20248;-89
2023/09/17 07:51:44;;;;;;;3.50;3.20;;;21.20;91.30;;;;;;6211556;23;20200;-90
2023/09/17 07:54:11;;;;;;;8.38;3.20;;;21.20;93.20;;;;;;6185704;23;20194;-89
2023/09/17 07:56:38;;;;;;;3.50;3.20;;;21.30;92.90;;;;;;6215370;23;20253;-90
2023/09/17 07:59:05;;;;;;;4.25;3.30;;;21.40;92.40;;;;;;6213369;23;20176;-90
2023/09/17 08:01:32;;;;;;;5.15;3.60;;;21.50;92.20;;;;;;6188030;23;20186;-92
2023/09/17 08:04:00;;;;;;;4.00;3.67;;;21.60;91.20;;;;;;6214938;23;20923;-91
2023/09/17 08:06:29;;;;;;;3.63;3.10;;;21.80;91.10;;;;;;6216254;23;20226;-91
2023/09/17 08:08:56;;;;;;;5.22;3.53;;;22.00;82.20;;;;;;6215471;23;20793;-90
2023/09/17 08:14:11;;;;;;;3.67;2.88;;;22.70;61.70;;;;;;6219325;23;20268;-91
2023/09/17 08:16:38;;;;;;;3.40;2.95;;;22.70;58.40;;;;;;6214521;23;20166;-90
2023/09/17 08:21:48;;;;;;;4.78;3.05;;;22.80;62.40;;;;;;6214263;23;20244;-90
2023/09/17 08:24:17;;;;;;;3.72;2.90;;;22.80;63.80;;;;;;6213665;23;20193;-87
2023/09/17 08:26:44;;;;;;;3.40;3.10;;;22.70;65.60;;;;;;6186941;23;20181;-90
2023/09/17 08:29:11;;;;;;;3.53;3.20;;;22.80;68.10;;;;;;6213292;23;20546;-89
2023/09/17 08:31:38;;;;;;;3.90;2.70;;;22.90;65.50;;;;;;6215460;23;20180;-89
2023/09/17 08:34:05;;;;;;;3.35;3.08;;;23.10;66.70;;;;;;6213380;23;20190;-88
2023/09/17 08:36:33;;;;;;;3.47;3.17;;;23.30;64.60;;;;;;6213414;23;20640;-88
2023/09/17 08:39:01;;;;;;;3.55;3.15;;;23.60;59.20;;;;;;6213958;23;20174;-86
2023/09/17 08:41:29;;;;;;;3.28;3.00;;;23.80;59.30;;;;;;6215727;23;20185;-91
2023/09/17 08:43:57;;;;;;;2.97;2.72;;;24.00;56.30;;;;;;6198348;23;20539;-90
2023/09/17 08:46:23;;;;;;;4.38;3.10;;;24.10;47.30;;;;;;6192088;23;20874;-88
2023/09/17 08:48:51;;;;;;;5.75;3.30;;;24.10;44.40;;;;;;6186393;23;20176;-90
2023/09/17 08:51:19;;;;;;;3.58;3.28;;;24.30;46.70;;;;;;6214532;23;20488;-88
2023/09/17 08:53:55;;;;;;;4.65;3.30;;;24.70;45.50;;;;;;6214826;23;20193;-90
2023/09/17 08:56:22;;;;;;;3.20;2.90;;;25.10;38.40;;;;;;6211149;23;20553;-90
2023/09/17 08:58:53;;;;;;;3.45;3.15;;;25.40;36.40;;;;;;6213804;23;20174;-88
2023/09/17 09:01:24;;;;;;;3.58;3.28;;;25.80;35.00;;;;;;6214281;23;20206;-88
2023/09/17 09:03:53;;;;;;;3.97;2.92;;;26.30;34.90;;;;;;6213923;23;20173;-89
2023/09/17 09:06:21;;;;;;;3.40;3.10;;;26.50;29.50;;;;;;6212654;23;20209;-88
2023/09/17 09:08:53;;;;;;;3.33;3.03;;;26.60;27.90;;;;;;6186885;23;20178;-88
2023/09/17 09:11:19;;;;;;;4.07;3.05;;;26.70;28.00;;;;;;6213019;23;20161;-88
2023/09/17 09:13:48;;;;;;;3.70;3.40;;;27.00;26.60;;;;;;6211957;23;20191;-88
2023/09/17 09:16:15;;;;;;;3.60;3.30;;;27.60;23.70;;;;;;6214814;23;20544;-88
2023/09/17 09:18:43;;;;;;;3.78;3.47;;;28.30;20.70;;;;;;6211315;23;20176;-88
2023/09/17 09:21:10;;;;;;;4.63;3.47;;;28.90;18.50;;;;;;6216687;23;20176;-91
2023/09/17 09:23:37;;;;;;;3.53;3.22;;;29.00;16.70;;;;;;6187859;23;20173;-88
2023/09/17 09:26:07;;;;;;;3.40;3.20;;;29.50;17.10;;;;;;6214165;23;20173;-88
2023/09/17 09:28:35;;;;;;;3.75;3.45;;;30.20;16.70;;;;;;6212871;23;20219;-88
2023/09/17 09:31:05;;;;;;;3.63;3.33;;;30.70;15.20;;;;;;6214199;23;20177;-89
2023/09/17 09:33:32;;;;;;;4.55;4.15;;;31.30;14.60;;;;;;6187460;23;20252;-89
2023/09/17 09:36:00;;;;;;;3.55;3.25;;;30.80;13.40;;;;;;6215337;23;20201;-89
2023/09/17 09:38:29;;;;;;;4.45;4.10;;;30.90;14.90;;;;;;6214719;23;20177;-94
2023/09/17 09:40:56;;;;;;;4.22;3.92;;;31.60;12.70;;;;;;6215813;23;20288;-93
2023/09/17 09:43:32;;;;;;;4.32;3.92;;;31.80;12.00;;;;;;6163112;23;20173;-92
2023/09/17 09:46:02;;;;;;;4.88;4.38;;;32.50;10.70;;;;;;6186861;23;20231;-92
2023/09/17 09:48:29;;;;;;;4.55;4.15;;;32.80;9.90;;;;;;6213256;23;20268;-91
2023/09/17 09:50:56;;;;;;;4.30;4.00;;;32.50;8.70;;;;;;6212276;23;20197;-91
2023/09/17 09:53:24;;;;;;;4.05;3.85;;;31.70;9.90;;;;;;6212244;23;20173;-90
2023/09/17 09:55:51;;;;;;;3.95;3.65;;;30.90;11.90;;;;;;6210176;23;20526;-90
2023/09/17 09:58:18;;;;;;;3.75;3.55;;;30.60;14.50;;;;;;6186750;23;20176;-90
2023/09/17 10:00:48;;;;;;;4.05;3.72;;;31.70;11.10;;;;;;6185623;23;20176;-92
2023/09/17 10:03:17;;;;;;;3.67;3.47;;;31.60;11.10;;;;;;6212927;23;20178;-91
2023/09/17 10:05:45;;;;;;;3.63;3.33;;;31.20;12.00;;;;;;6212546;23;20181;-91
2023/09/17 10:08:17;;;;;;;7.22;6.60;;;30.60;14.10;;;;;;6213029;23;20232;-91
2023/09/17 10:10:44;;;;;;;7.30;5.93;;;29.90;16.50;;;;;;6211467;23;20181;-90
2023/09/17 10:13:12;;;;;;;4.68;4.00;;;29.50;17.80;;;;;;6213607;23;20169;-90
2023/09/17 10:15:41;;;;;;;4.22;3.42;;;29.40;16.40;;;;;;6212516;23;20201;-90
2023/09/17 10:18:12;;;;;;;4.45;3.97;;;29.60;15.30;;;;;;6213864;23;20174;-91
2023/09/17 10:20:42;;;;;;;4.65;4.25;;;29.20;17.50;;;;;;6212846;23;20166;-91
2023/09/17 10:23:12;;;;;;;4.72;3.50;;;29.00;16.10;;;;;;6212847;23;20538;-90
2023/09/17 10:25:42;;;;;;;4.05;3.28;;;29.00;16.90;;;;;;6211086;23;20501;-91
2023/09/17 10:28:12;;;;;;;5.93;3.80;;;29.00;16.10;;;;;;6212180;23;20166;-90
2023/09/17 10:30:39;;;;;;;3.67;3.38;;;28.70;16.00;;;;;;6213328;23;20177;-91
2023/09/17 10:33:08;;;;;;;3.97;3.58;;;29.10;16.20;;;;;;6212149;23;20887;-91
2023/09/17 10:35:38;;;;;;;4.93;3.38;;;28.40;15.80;;;;;;6211147;23;20193;-88
2023/09/17 10:38:07;;;;;;;3.97;3.42;;;28.00;18.60;;;;;;6207801;23;20200;-87
2023/09/17 10:40:35;;;;;;;3.47;3.20;;;27.80;20.50;;;;;;6208189;23;20199;-88
2023/09/17 10:43:04;;;;;;;4.47;3.30;;;27.70;19.00;;;;;;6208091;23;20169;-88
2023/09/17 10:45:35;;;;;;;3.75;3.40;;;27.80;19.20;;;;;;6207926;23;20253;-88
2023/09/17 10:48:03;;;;;;;4.43;3.30;;;27.70;18.80;;;;;;6184041;23;20164;-90
2023/09/17 10:53:16;;;;;;;5.45;3.58;;;27.70;20.20;;;;;;6172838;23;20196;-90
2023/09/17 10:55:57;;;;;;;4.90;3.70;;;27.70;22.90;;;;;;6186142;23;20281;-91
2023/09/17 10:58:28;;;;;;;3.33;3.03;;;27.90;24.60;;;;;;6211034;23;20172;-89
2023/09/17 11:00:58;;;;;;;4.00;3.70;;;28.00;21.10;;;;;;6211663;23;20168;-90
2023/09/17 11:03:27;;;;;;;3.97;3.67;;;28.10;19.30;;;;;;6213188;23;20181;-90
2023/09/17 11:05:57;;;;;;;4.28;3.65;;;28.00;19.50;;;;;;6214014;23;20192;-90
2023/09/17 11:08:25;;;;;;;3.28;3.08;;;27.80;18.30;;;;;;6210784;23;20205;-89
2023/09/17 11:10:52;;;;;;;5.68;3.67;;;27.60;21.00;;;;;;6157561;23;20173;-90
2023/09/17 11:13:20;;;;;;;4.00;3.50;;;27.50;23.20;;;;;;6181468;23;20232;-89
2023/09/17 11:16:06;;;;;;;4.50;4.10;;;27.50;18.70;;;;;;6185678;23;20193;-89
2023/09/17 11:18:34;;;;;;;4.03;3.72;;;27.60;20.30;;;;;;6211390;23;20548;-88
2023/09/17 11:21:06;;;;;;;3.65;3.40;;;27.50;20.30;;;;;;6212895;23;20166;-88
2023/09/17 11:23:39;;;;;;;3.85;3.55;;;27.70;18.40;;;;;;6211927;23;20161;-87
2023/09/17 11:26:07;;;;;;;3.45;3.15;;;27.40;21.20;;;;;;6211579;23;20184;-86
2023/09/17 11:28:38;;;;;;;3.30;3.10;;;27.40;20.70;;;;;;6212052;23;20553;-87
2023/09/17 11:31:09;;;;;;;3.55;3.20;;;27.60;19.00;;;;;;6211450;23;20248;-87
2023/09/17 11:33:37;;;;;;;4.03;3.35;;;27.70;18.20;;;;;;6213999;23;20173;-85
2023/09/17 11:36:05;;;;;;;3.83;3.17;;;27.50;17.60;;;;;;6164149;23;20233;-86
2023/09/17 11:38:32;;;;;;;3.72;3.40;;;27.60;19.10;;;;;;6215243;23;20344;-85
2023/09/17 11:41:18;;;;;;;3.47;2.90;;;27.50;18.50;;;;;;6215546;23;20462;-87
2023/09/17 11:43:47;;;;;;;3.38;3.08;;;26.90;18.50;;;;;;6215179;23;20161;-88
2023/09/17 11:46:15;;;;;;;3.15;2.70;;;26.80;18.40;;;;;;6216177;23;20269;-87
2023/09/17 11:48:43;;;;;;;3.88;2.75;;;27.00;20.80;;;;;;6215464;23;20492;-87
2023/09/17 11:51:22;;;;;;;2.90;2.70;;;27.10;19.20;;;;;;6215531;23;20197;-87
2023/09/17 11:54:01;;;;;;;3.10;2.80;;;27.20;19.00;;;;;;6215426;23;20165;-87
2023/09/17 11:56:31;;;;;;;3.22;2.92;;;27.30;17.50;;;;;;6215478;23;20185;-87
2023/09/17 11:58:59;;;;;;;3.25;2.95;;;27.20;21.80;;;;;;6215254;23;20173;-87
2023/09/17 12:01:28;;;;;;;3.28;2.97;;;27.10;20.20;;;;;;6215285;23;20181;-87
2023/09/17 12:03:55;;;;;;;3.05;2.75;;;27.20;21.00;;;;;;6214726;23;20177;-87
2023/09/17 12:06:22;;;;;;;4.63;2.97;;;27.20;17.60;;;;;;6214209;23;20169;-87
2023/09/17 12:08:49;;;;;;;3.08;2.88;;;27.20;19.50;;;;;;6214428;23;20170;-87
2023/09/17 12:11:21;;;;;;;3.10;2.80;;;27.20;18.40;;;;;;6214489;23;20807;-88
2023/09/17 12:13:53;;;;;;;3.22;3.03;;;27.30;18.30;;;;;;6215183;23;20161;-88
2023/09/17 12:16:23;;;;;;;2.90;2.70;;;27.30;18.70;;;;;;6215647;23;20193;-88
2023/09/17 12:18:50;;;;;;;3.05;2.85;;;27.40;18.60;;;;;;6213571;23;20621;-87
2023/09/17 12:21:17;;;;;;;2.70;2.50;;;27.40;19.00;;;;;;6188587;23;20502;-88
2023/09/17 12:23:54;;;;;;;4.00;2.90;;;27.50;17.90;;;;;;6213934;23;20180;-88
2023/09/17 12:26:26;;;;;;;2.80;2.60;;;27.70;17.30;;;;;;6215564;23;20231;-87
2023/09/17 12:28:55;;;;;;;2.80;2.60;;;27.80;16.80;;;;;;6189040;23;20220;-88
2023/09/17 12:31:22;;;;;;;4.22;2.88;;;27.80;15.90;;;;;;6215294;23;20172;-87
2023/09/17 12:33:48;;;;;;;2.70;2.50;;;27.70;15.50;;;;;;6214833;23;20169;-88
2023/09/17 12:36:16;;;;;;;4.32;2.70;;;27.60;15.90;;;;;;6214437;23;20663;-87
2023/09/17 12:38:43;;;;;;;2.70;2.50;;;27.50;15.40;;;;;;6215945;23;20239;-87
2023/09/17 12:41:12;;;;;;;3.90;3.00;;;27.30;15.40;;;;;;6213261;23;20623;-87
2023/09/17 12:43:39;;;;;;;3.10;2.42;;;27.30;16.00;;;;;;6188679;23;20232;-87
2023/09/17 12:46:07;;;;;;;2.65;2.45;;;27.20;17.70;;;;;;6215966;23;20184;-87
2023/09/17 12:48:35;;;;;;;3.08;2.78;;;27.00;16.70;;;;;;6214772;23;20228;-87
2023/09/17 12:51:02;;;;;;;3.63;2.47;;;27.20;16.80;;;;;;6214970;23;20197;-86
2023/09/17 12:53:30;;;;;;;3.15;2.72;;;27.10;17.70;;;;;;6215322;23;20173;-85
2023/09/17 12:56:00;;;;;;;2.72;2.47;;;27.10;17.60;;;;;;6213094;23;20513;-87
2023/09/17 12:58:27;;;;;;;5.57;2.53;;;27.30;15.30;;;;;;6214287;23;20170;-86